sensor_id;sensor_type;location;lat;lon;timestamp;pressure;altitude;pressure_sealevel;temperature;humidity
65800;BME280;52544;48.116;11.660;2022-10-31T00:01:51;96110.88;;;11.00;100.00
65800;BME280;52544;48.116;11.660;2022-10-31T00:04:16;96104.16;;;10.96;100.00
65800;BME280;52544;48.116;11.660;2022-10-31T00:06:42;96100.41;;;11.10;100.00
65800;BME280;52544;48.116;11.660;2022-10-31T00:09:09;96098.47;;;11.12;100.00
65800;BME280;52544;48.116;11.660;2022-10-31T00:11:34;96106.69;;;11.09;100.00
65800;BME280;52544;48.116;11.660;2022-10-31T00:14:00;96110.41;;;11.17;100.00
65800;BME280;52544;48.116;11.660;2022-10-31T00:16:27;96107.03;;;11.15;100.00
65800;BME280;52544;48.116;11.660;2022-10-31T00:18:55;96107.75;;;10.95;100.00
65800;BME280;52544;48.116;11.660;2022-10-31T00:21:22;96103.78;;;10.67;100.00
65800;BME280;52544;48.116;11.660;2022-10-31T00:23:48;96102.69;;;10.69;100.00
65800;BME280;52544;48.116;11.660;2022-10-31T00:26:13;96103.06;;;10.54;100.00
65800;BME280;52544;48.116;11.660;2022-10-31T00:28:39;96106.56;;;10.76;100.00
65800;BME280;52544;48.116;11.660;2022-10-31T00:31:07;96099.09;;;10.70;100.00
65800;BME280;52544;48.116;11.660;2022-10-31T00:33:34;96100.41;;;10.65;100.00
65800;BME280;52544;48.116;11.660;2022-10-31T00:35:59;96102.53;;;10.48;100.00
65800;BME280;52544;48.116;11.660;2022-10-31T00:38:25;96103.38;;;10.49;100.00
65800;BME280;52544;48.116;11.660;2022-10-31T00:40:50;96095.69;;;10.46;100.00
65800;BME280;52544;48.116;11.660;2022-10-31T00:43:16;96093.56;;;10.62;100.00
65800;BME280;52544;48.116;11.660;2022-10-31T00:45:42;96091.63;;;10.75;100.00
65800;BME280;52544;48.116;11.660;2022-10-31T00:48:08;96082.75;;;10.88;100.00
65800;BME280;52544;48.116;11.660;2022-10-31T00:50:33;96090.91;;;10.85;100.00
65800;BME280;52544;48.116;11.660;2022-10-31T00:52:58;96089.94;;;10.74;100.00
65800;BME280;52544;48.116;11.660;2022-10-31T00:55:24;96095.50;;;10.71;100.00
65800;BME280;52544;48.116;11.660;2022-10-31T00:57:49;96097.38;;;10.47;100.00
65800;BME280;52544;48.116;11.660;2022-10-31T01:00:15;96087.59;;;10.25;100.00
65800;BME280;52544;48.116;11.660;2022-10-31T01:02:40;96091.56;;;10.31;100.00
65800;BME280;52544;48.116;11.660;2022-10-31T01:05:06;96094.38;;;10.51;100.00
65800;BME280;52544;48.116;11.660;2022-10-31T01:07:34;96086.69;;;10.60;100.00
65800;BME280;52544;48.116;11.660;2022-10-31T01:10:00;96086.41;;;10.40;100.00
65800;BME280;52544;48.116;11.660;2022-10-31T01:12:25;96095.00;;;10.20;100.00
65800;BME280;52544;48.116;11.660;2022-10-31T01:14:50;96092.47;;;10.18;100.00
65800;BME280;52544;48.116;11.660;2022-10-31T01:17:16;96094.41;;;10.16;100.00
65800;BME280;52544;48.116;11.660;2022-10-31T01:19:41;96094.22;;;10.07;100.00
65800;BME280;52544;48.116;11.660;2022-10-31T01:22:06;96086.63;;;9.91;100.00
65800;BME280;52544;48.116;11.660;2022-10-31T01:24:32;96090.94;;;9.92;100.00
65800;BME280;52544;48.116;11.660;2022-10-31T01:26:57;96091.28;;;9.87;100.00
65800;BME280;52544;48.116;11.660;2022-10-31T01:29:23;96096.94;;;9.94;100.00
65800;BME280;52544;48.116;11.660;2022-10-31T01:31:48;96094.22;;;10.07;100.00
65800;BME280;52544;48.116;11.660;2022-10-31T01:34:15;96100.19;;;10.21;100.00
65800;BME280;52544;48.116;11.660;2022-10-31T01:36:42;96093.91;;;10.22;100.00
65800;BME280;52544;48.116;11.660;2022-10-31T01:39:13;96094.75;;;10.23;100.00
65800;BME280;52544;48.116;11.660;2022-10-31T01:41:42;96102.69;;;10.23;100.00
65800;BME280;52544;48.116;11.660;2022-10-31T01:49:17;96092.19;;;10.34;100.00
65800;BME280;52544;48.116;11.660;2022-10-31T01:51:52;96085.56;;;10.40;100.00
65800;BME280;52544;48.116;11.660;2022-10-31T01:54:21;96088.91;;;10.31;100.00
65800;BME280;52544;48.116;11.660;2022-10-31T01:56:50;96095.84;;;10.20;100.00
65800;BME280;52544;48.116;11.660;2022-10-31T01:59:19;96097.34;;;10.24;100.00
65800;BME280;52544;48.116;11.660;2022-10-31T02:01:46;96090.13;;;10.26;100.00
65800;BME280;52544;48.116;11.660;2022-10-31T02:04:12;96088.44;;;10.25;100.00
65800;BME280;52544;48.116;11.660;2022-10-31T02:09:47;96084.03;;;10.13;100.00
65800;BME280;52544;48.116;11.660;2022-10-31T02:12:14;96084.72;;;10.28;100.00
65800;BME280;52544;48.116;11.660;2022-10-31T02:14:40;96089.59;;;10.21;100.00
65800;BME280;52544;48.116;11.660;2022-10-31T02:17:06;96087.31;;;10.17;100.00
65800;BME280;52544;48.116;11.660;2022-10-31T02:19:41;96091.94;;;10.02;100.00
65800;BME280;52544;48.116;11.660;2022-10-31T02:22:22;96095.53;;;10.01;100.00
65800;BME280;52544;48.116;11.660;2022-10-31T02:25:16;96088.69;;;9.98;100.00
65800;BME280;52544;48.116;11.660;2022-10-31T02:28:13;96089.22;;;9.80;100.00
65800;BME280;52544;48.116;11.660;2022-10-31T02:30:57;96090.94;;;9.92;100.00
65800;BME280;52544;48.116;11.660;2022-10-31T02:33:36;96096.38;;;9.66;100.00
65800;BME280;52544;48.116;11.660;2022-10-31T02:36:17;96090.00;;;9.45;100.00
65800;BME280;52544;48.116;11.660;2022-10-31T02:41:57;96094.59;;;9.30;100.00
65800;BME280;52544;48.116;11.660;2022-10-31T02:44:48;96099.31;;;9.38;100.00
65800;BME280;52544;48.116;11.660;2022-10-31T02:47:16;96089.97;;;9.58;100.00
65800;BME280;52544;48.116;11.660;2022-10-31T02:54:45;96096.97;;;9.46;100.00
65800;BME280;52544;48.116;11.660;2022-10-31T02:57:11;96091.47;;;9.49;100.00
65800;BME280;52544;48.116;11.660;2022-10-31T02:59:40;96091.75;;;9.57;100.00
65800;BME280;52544;48.116;11.660;2022-10-31T03:05:09;96092.50;;;9.35;100.00
65800;BME280;52544;48.116;11.660;2022-10-31T03:07:54;96088.47;;;9.30;100.00
65800;BME280;52544;48.116;11.660;2022-10-31T03:13:31;96092.81;;;8.94;100.00
65800;BME280;52544;48.116;11.660;2022-10-31T03:16:01;96093.41;;;9.10;100.00
65800;BME280;52544;48.116;11.660;2022-10-31T03:18:32;96088.56;;;8.91;100.00
65800;BME280;52544;48.116;11.660;2022-10-31T03:21:05;96092.22;;;9.14;100.00
65800;BME280;52544;48.116;11.660;2022-10-31T03:23:35;96093.66;;;9.31;100.00
65800;BME280;52544;48.116;11.660;2022-10-31T03:26:04;96098.09;;;9.31;100.00
65800;BME280;52544;48.116;11.660;2022-10-31T03:28:46;96092.88;;;9.18;100.00
65800;BME280;52544;48.116;11.660;2022-10-31T03:31:18;96096.75;;;9.12;100.00
65800;BME280;52544;48.116;11.660;2022-10-31T03:33:45;96087.94;;;9.00;100.00
65800;BME280;52544;48.116;11.660;2022-10-31T03:36:14;96100.84;;;8.80;100.00
65800;BME280;52544;48.116;11.660;2022-10-31T03:38:42;96095.88;;;9.00;100.00
65800;BME280;52544;48.116;11.660;2022-10-31T03:41:12;96094.78;;;9.03;100.00
65800;BME280;52544;48.116;11.660;2022-10-31T03:43:43;96099.84;;;9.06;100.00
65800;BME280;52544;48.116;11.660;2022-10-31T03:46:11;96092.19;;;9.27;100.00
65800;BME280;52544;48.116;11.660;2022-10-31T03:48:37;96099.31;;;9.38;100.00
65800;BME280;52544;48.116;11.660;2022-10-31T03:51:15;96089.50;;;9.40;100.00
65800;BME280;52544;48.116;11.660;2022-10-31T03:53:54;96092.06;;;9.29;100.00
65800;BME280;52544;48.116;11.660;2022-10-31T03:56:37;96093.66;;;8.82;100.00
65800;BME280;52544;48.116;11.660;2022-10-31T03:59:19;96093.81;;;9.04;100.00
65800;BME280;52544;48.116;11.660;2022-10-31T04:01:51;96092.19;;;8.77;100.00
65800;BME280;52544;48.116;11.660;2022-10-31T04:04:18;96102.31;;;8.96;100.00
65800;BME280;52544;48.116;11.660;2022-10-31T04:06:45;96092.50;;;8.73;100.00
65800;BME280;52544;48.116;11.660;2022-10-31T04:09:13;96097.06;;;8.71;100.00
65800;BME280;52544;48.116;11.660;2022-10-31T04:11:47;96094.50;;;8.82;100.00
65800;BME280;52544;48.116;11.660;2022-10-31T04:14:13;96097.69;;;8.62;100.00
65800;BME280;52544;48.116;11.660;2022-10-31T04:16:42;96098.63;;;8.73;100.00
65800;BME280;52544;48.116;11.660;2022-10-31T04:19:09;96095.56;;;8.92;100.00
65800;BME280;52544;48.116;11.660;2022-10-31T04:21:34;96106.66;;;8.85;100.00
65800;BME280;52544;48.116;11.660;2022-10-31T04:24:00;96099.75;;;8.95;100.00
65800;BME280;52544;48.116;11.660;2022-10-31T04:26:25;96099.25;;;8.90;100.00
65800;BME280;52544;48.116;11.660;2022-10-31T04:28:50;96099.28;;;8.64;100.00
65800;BME280;52544;48.116;11.660;2022-10-31T04:31:16;96104.66;;;8.75;100.00
65800;BME280;52544;48.116;11.660;2022-10-31T04:33:42;96098.72;;;8.85;100.00
65800;BME280;52544;48.116;11.660;2022-10-31T04:36:07;96105.25;;;8.79;100.00
65800;BME280;52544;48.116;11.660;2022-10-31T04:38:33;96109.31;;;8.72;100.00
65800;BME280;52544;48.116;11.660;2022-10-31T04:40:59;96103.81;;;8.62;100.00
65800;BME280;52544;48.116;11.660;2022-10-31T04:43:24;96114.25;;;8.76;100.00
65800;BME280;52544;48.116;11.660;2022-10-31T04:45:50;96117.28;;;8.83;100.00
65800;BME280;52544;48.116;11.660;2022-10-31T04:48:16;96115.72;;;8.81;100.00
65800;BME280;52544;48.116;11.660;2022-10-31T04:50:42;96118.59;;;8.65;100.00
65800;BME280;52544;48.116;11.660;2022-10-31T04:53:07;96111.72;;;8.62;100.00
65800;BME280;52544;48.116;11.660;2022-10-31T04:55:33;96112.25;;;8.67;100.00
65800;BME280;52544;48.116;11.660;2022-10-31T04:57:58;96116.47;;;8.70;100.00
65800;BME280;52544;48.116;11.660;2022-10-31T05:00:24;96116.69;;;8.80;100.00
65800;BME280;52544;48.116;11.660;2022-10-31T05:02:52;96112.88;;;8.84;100.00
65800;BME280;52544;48.116;11.660;2022-10-31T05:05:20;96105.91;;;8.83;100.00
65800;BME280;52544;48.116;11.660;2022-10-31T05:07:47;96099.56;;;8.85;100.00
65800;BME280;52544;48.116;11.660;2022-10-31T05:10:16;96091.13;;;8.93;100.00
65800;BME280;52544;48.116;11.660;2022-10-31T05:12:50;96105.06;;;8.82;100.00
65800;BME280;52544;48.116;11.660;2022-10-31T05:15:16;96104.44;;;8.79;100.00
65800;BME280;52544;48.116;11.660;2022-10-31T05:17:42;96098.06;;;8.94;100.00
65800;BME280;52544;48.116;11.660;2022-10-31T05:20:09;96103.34;;;8.94;100.00
65800;BME280;52544;48.116;11.660;2022-10-31T05:22:35;96103.28;;;8.70;100.00
65800;BME280;52544;48.116;11.660;2022-10-31T05:25:00;96097.91;;;8.71;100.00
65800;BME280;52544;48.116;11.660;2022-10-31T05:27:25;96086.91;;;8.77;100.00
65800;BME280;52544;48.116;11.660;2022-10-31T05:29:51;96084.78;;;8.83;100.00
65800;BME280;52544;48.116;11.660;2022-10-31T05:32:16;96087.56;;;8.68;100.00
65800;BME280;52544;48.116;11.660;2022-10-31T05:34:42;96093.03;;;8.65;100.00
65800;BME280;52544;48.116;11.660;2022-10-31T05:37:08;96093.03;;;8.52;100.00
65800;BME280;52544;48.116;11.660;2022-10-31T05:39:33;96098.44;;;8.51;100.00
65800;BME280;52544;48.116;11.660;2022-10-31T05:41:58;96090.84;;;8.59;100.00
65800;BME280;52544;48.116;11.660;2022-10-31T05:44:24;96095.81;;;8.51;100.00
65800;BME280;52544;48.116;11.660;2022-10-31T05:46:49;96090.53;;;8.51;100.00
65800;BME280;52544;48.116;11.660;2022-10-31T05:49:14;96088.41;;;8.56;100.00
65800;BME280;52544;48.116;11.660;2022-10-31T05:51:40;96094.13;;;8.50;100.00
65800;BME280;52544;48.116;11.660;2022-10-31T05:54:05;96088.41;;;8.56;100.00
65800;BME280;52544;48.116;11.660;2022-10-31T05:56:30;96096.84;;;8.48;100.00
65800;BME280;52544;48.116;11.660;2022-10-31T05:58:56;96096.00;;;8.48;100.00
65800;BME280;52544;48.116;11.660;2022-10-31T06:01:21;96092.66;;;8.46;100.00
65800;BME280;52544;48.116;11.660;2022-10-31T06:03:47;96091.38;;;8.51;100.00
65800;BME280;52544;48.116;11.660;2022-10-31T06:06:12;96094.00;;;8.39;100.00
65800;BME280;52544;48.116;11.660;2022-10-31T06:08:38;96096.50;;;8.27;100.00
65800;BME280;52544;48.116;11.660;2022-10-31T06:11:03;96092.16;;;8.26;100.00
65800;BME280;52544;48.116;11.660;2022-10-31T06:13:28;96088.91;;;8.36;100.00
65800;BME280;52544;48.116;11.660;2022-10-31T06:15:54;96090.09;;;8.44;100.00
65800;BME280;52544;48.116;11.660;2022-10-31T06:18:19;96097.28;;;8.55;100.00
65800;BME280;52544;48.116;11.660;2022-10-31T06:20:44;96097.34;;;8.66;100.00
65800;BME280;52544;48.116;11.660;2022-10-31T06:23:10;96097.91;;;8.71;100.00
65800;BME280;52544;48.116;11.660;2022-10-31T06:25:35;96093.25;;;8.75;100.00
65800;BME280;52544;48.116;11.660;2022-10-31T06:28:01;96095.78;;;8.76;100.00
65800;BME280;52544;48.116;11.660;2022-10-31T06:30:26;96100.97;;;8.65;100.00
65800;BME280;52544;48.116;11.660;2022-10-31T06:32:51;96097.38;;;8.54;100.00
65800;BME280;52544;48.116;11.660;2022-10-31T06:35:17;96103.06;;;8.60;100.00
65800;BME280;52544;48.116;11.660;2022-10-31T06:37:43;96096.75;;;8.75;100.00
65800;BME280;52544;48.116;11.660;2022-10-31T06:40:15;96091.31;;;8.90;100.00
65800;BME280;52544;48.116;11.660;2022-10-31T06:42:40;96094.94;;;8.89;100.00
65800;BME280;52544;48.116;11.660;2022-10-31T06:45:06;96094.41;;;8.96;100.00
65800;BME280;52544;48.116;11.660;2022-10-31T06:47:31;96093.81;;;9.04;100.00
65800;BME280;52544;48.116;11.660;2022-10-31T06:49:57;96088.97;;;9.11;100.00
65800;BME280;52544;48.116;11.660;2022-10-31T06:52:22;96090.41;;;9.27;100.00
65800;BME280;52544;48.116;11.660;2022-10-31T06:54:48;96092.06;;;9.29;100.00
65800;BME280;52544;48.116;11.660;2022-10-31T06:57:13;96087.16;;;9.48;100.00
65800;BME280;52544;48.116;11.660;2022-10-31T06:59:39;96087.72;;;9.64;100.00
65800;BME280;52544;48.116;11.660;2022-10-31T07:02:05;96101.72;;;9.77;100.00
65800;BME280;52544;48.116;11.660;2022-10-31T07:04:30;96096.00;;;9.95;100.00
65800;BME280;52544;48.116;11.660;2022-10-31T07:06:55;96099.50;;;10.07;100.00
65800;BME280;52544;48.116;11.660;2022-10-31T07:09:20;96102.19;;;10.18;100.00
65800;BME280;52544;48.116;11.660;2022-10-31T07:11:46;96099.13;;;10.24;100.00
65800;BME280;52544;48.116;11.660;2022-10-31T07:14:11;96098.81;;;10.51;100.00
65800;BME280;52544;48.116;11.660;2022-10-31T07:16:36;96097.16;;;10.72;99.03
65800;BME280;52544;48.116;11.660;2022-10-31T07:19:02;96100.31;;;10.89;98.13
65800;BME280;52544;48.116;11.660;2022-10-31T07:21:27;96099.69;;;10.85;98.68
65800;BME280;52544;48.116;11.660;2022-10-31T07:23:53;96099.34;;;10.90;99.96
65800;BME280;52544;48.116;11.660;2022-10-31T07:26:18;96101.75;;;10.93;100.00
65800;BME280;52544;48.116;11.660;2022-10-31T07:28:43;96098.38;;;11.02;99.41
65800;BME280;52544;48.116;11.660;2022-10-31T07:31:10;96104.28;;;11.06;99.73
65800;BME280;52544;48.116;11.660;2022-10-31T07:33:35;96099.09;;;11.15;99.99
65800;BME280;52544;48.116;11.660;2022-10-31T07:36:01;96100.53;;;11.31;98.33
65800;BME280;52544;48.116;11.660;2022-10-31T07:38:26;96103.88;;;11.44;96.81
65800;BME280;52544;48.116;11.660;2022-10-31T07:40:52;96096.22;;;11.62;96.54
65800;BME280;52544;48.116;11.660;2022-10-31T07:43:20;96098.09;;;11.82;95.88
65800;BME280;52544;48.116;11.660;2022-10-31T07:45:50;96096.09;;;12.07;94.10
65800;BME280;52544;48.116;11.660;2022-10-31T07:48:16;96097.06;;;12.26;93.45
65800;BME280;52544;48.116;11.660;2022-10-31T07:50:41;96096.22;;;12.47;92.00
65800;BME280;52544;48.116;11.660;2022-10-31T07:53:08;96089.53;;;12.73;89.84
65800;BME280;52544;48.116;11.660;2022-10-31T07:55:35;96086.53;;;12.88;88.29
65800;BME280;52544;48.116;11.660;2022-10-31T07:58:06;96087.63;;;13.16;85.74
65800;BME280;52544;48.116;11.660;2022-10-31T08:00:33;96090.25;;;13.37;83.32
65800;BME280;52544;48.116;11.660;2022-10-31T08:03:08;96087.34;;;13.59;83.31
65800;BME280;52544;48.116;11.660;2022-10-31T08:05:34;96084.84;;;13.67;82.51
65800;BME280;52544;48.116;11.660;2022-10-31T08:08:00;96077.88;;;13.86;83.26
65800;BME280;52544;48.116;11.660;2022-10-31T08:10:27;96077.72;;;13.97;82.91
65800;BME280;52544;48.116;11.660;2022-10-31T08:13:00;96071.84;;;14.22;82.80
65800;BME280;52544;48.116;11.660;2022-10-31T08:15:27;96067.50;;;14.41;81.41
65800;BME280;52544;48.116;11.660;2022-10-31T08:17:52;96067.78;;;14.57;80.21
65800;BME280;52544;48.116;11.660;2022-10-31T08:20:19;96058.72;;;14.78;79.93
65800;BME280;52544;48.116;11.660;2022-10-31T08:22:53;96060.34;;;14.98;78.95
65800;BME280;52544;48.116;11.660;2022-10-31T08:25:18;96055.59;;;15.19;78.38
65800;BME280;52544;48.116;11.660;2022-10-31T08:27:48;96048.69;;;15.27;78.18
65800;BME280;52544;48.116;11.660;2022-10-31T08:30:14;96054.84;;;15.55;79.04
65800;BME280;52544;48.116;11.660;2022-10-31T08:32:39;96055.28;;;15.78;76.91
65800;BME280;52544;48.116;11.660;2022-10-31T08:35:04;96051.63;;;15.96;76.80
65800;BME280;52544;48.116;11.660;2022-10-31T08:37:30;96051.94;;;16.11;77.66
65800;BME280;52544;48.116;11.660;2022-10-31T08:39:55;96039.88;;;16.07;78.09
65800;BME280;52544;48.116;11.660;2022-10-31T08:42:20;96043.53;;;16.24;77.09
65800;BME280;52544;48.116;11.660;2022-10-31T08:44:46;96036.53;;;16.49;75.27
65800;BME280;52544;48.116;11.660;2022-10-31T08:47:11;96036.25;;;16.60;74.62
65800;BME280;52544;48.116;11.660;2022-10-31T08:49:37;96022.44;;;16.83;75.03
65800;BME280;52544;48.116;11.660;2022-10-31T08:52:02;96031.41;;;16.82;74.60
65800;BME280;52544;48.116;11.660;2022-10-31T08:54:28;96022.47;;;16.99;76.52
65800;BME280;52544;48.116;11.660;2022-10-31T08:56:54;96016.47;;;17.39;72.68
65800;BME280;52544;48.116;11.660;2022-10-31T08:59:20;96025.91;;;17.60;71.78
65800;BME280;52544;48.116;11.660;2022-10-31T09:01:45;96015.41;;;17.83;69.95
65800;BME280;52544;48.116;11.660;2022-10-31T09:04:11;96020.78;;;17.99;70.88
65800;BME280;52544;48.116;11.660;2022-10-31T09:06:36;96002.56;;;18.27;70.63
65800;BME280;52544;48.116;11.660;2022-10-31T09:09:02;96010.75;;;18.50;68.43
65800;BME280;52544;48.116;11.660;2022-10-31T09:11:29;96001.34;;;18.70;65.83
65800;BME280;52544;48.116;11.660;2022-10-31T09:13:55;95996.47;;;18.82;63.99
65800;BME280;52544;48.116;11.660;2022-10-31T09:16:20;95997.75;;;18.94;64.06
65800;BME280;52544;48.116;11.660;2022-10-31T09:18:46;95995.84;;;19.11;62.46
65800;BME280;52544;48.116;11.660;2022-10-31T09:21:11;95991.75;;;19.32;60.58
65800;BME280;52544;48.116;11.660;2022-10-31T09:23:36;95991.06;;;19.38;59.90
65800;BME280;52544;48.116;11.660;2022-10-31T09:26:02;95991.63;;;19.56;60.79
65800;BME280;52544;48.116;11.660;2022-10-31T09:28:27;95993.03;;;19.75;59.45
65800;BME280;52544;48.116;11.660;2022-10-31T09:30:53;95988.53;;;19.76;59.51
65800;BME280;52544;48.116;11.660;2022-10-31T09:33:19;95980.50;;;19.67;59.14
65800;BME280;52544;48.116;11.660;2022-10-31T09:35:45;95983.34;;;19.66;57.73
65800;BME280;52544;48.116;11.660;2022-10-31T09:38:13;95978.53;;;19.61;57.24
65800;BME280;52544;48.116;11.660;2022-10-31T09:40:45;95982.03;;;19.62;56.92
65800;BME280;52544;48.116;11.660;2022-10-31T09:43:43;95977.78;;;19.76;57.61
65800;BME280;52544;48.116;11.660;2022-10-31T09:53:59;95968.00;;;20.20;54.12
65800;BME280;52544;48.116;11.660;2022-10-31T09:56:27;95965.66;;;20.03;54.89
65800;BME280;52544;48.116;11.660;2022-10-31T09:58:55;95965.06;;;19.92;56.07
65800;BME280;52544;48.116;11.660;2022-10-31T10:01:34;95966.31;;;19.82;58.83
65800;BME280;52544;48.116;11.660;2022-10-31T10:04:10;95954.59;;;19.75;61.38
65800;BME280;52544;48.116;11.660;2022-10-31T10:06:44;95961.53;;;19.69;59.87
65800;BME280;52544;48.116;11.660;2022-10-31T10:09:11;95964.63;;;19.49;59.42
65800;BME280;52544;48.116;11.660;2022-10-31T10:11:54;95965.09;;;19.30;60.69
65800;BME280;52544;48.116;11.660;2022-10-31T10:14:39;95961.69;;;19.36;60.08
65800;BME280;52544;48.116;11.660;2022-10-31T10:20:10;95963.03;;;19.71;56.47
65800;BME280;52544;48.116;11.660;2022-10-31T10:27:50;95946.06;;;19.94;53.39
65800;BME280;52544;48.116;11.660;2022-10-31T10:30:21;95942.28;;;19.88;54.68
65800;BME280;52544;48.116;11.660;2022-10-31T10:32:59;95951.22;;;19.81;53.77
65800;BME280;52544;48.116;11.660;2022-10-31T10:35:35;95941.38;;;19.73;53.93
65800;BME280;52544;48.116;11.660;2022-10-31T10:40:47;95942.94;;;19.59;54.37
65800;BME280;52544;48.116;11.660;2022-10-31T10:43:37;95942.66;;;19.54;54.81
65800;BME280;52544;48.116;11.660;2022-10-31T10:49:18;95947.06;;;19.47;55.20
65800;BME280;52544;48.116;11.660;2022-10-31T10:51:59;95943.09;;;19.35;54.35
65800;BME280;52544;48.116;11.660;2022-10-31T10:57:11;95936.56;;;18.98;55.43
65800;BME280;52544;48.116;11.660;2022-10-31T10:59:42;95935.41;;;18.92;56.17
65800;BME280;52544;48.116;11.660;2022-10-31T11:02:17;95935.78;;;18.81;55.94
65800;BME280;52544;48.116;11.660;2022-10-31T11:04:44;95931.63;;;18.79;56.70
65800;BME280;52544;48.116;11.660;2022-10-31T11:07:12;95924.09;;;18.74;58.40
65800;BME280;52544;48.116;11.660;2022-10-31T11:09:38;95927.13;;;18.71;57.48
65800;BME280;52544;48.116;11.660;2022-10-31T11:12:20;95921.59;;;18.72;58.64
65800;BME280;52544;48.116;11.660;2022-10-31T11:14:53;95918.91;;;18.64;57.25
65800;BME280;52544;48.116;11.660;2022-10-31T11:17:28;95905.38;;;18.58;58.35
65800;BME280;52544;48.116;11.660;2022-10-31T11:22:44;95901.88;;;18.49;59.12
65800;BME280;52544;48.116;11.660;2022-10-31T11:27:43;95908.59;;;18.45;61.01
65800;BME280;52544;48.116;11.660;2022-10-31T11:30:09;95907.25;;;18.49;60.73
65800;BME280;52544;48.116;11.660;2022-10-31T11:32:35;95903.69;;;18.57;61.82
65800;BME280;52544;48.116;11.660;2022-10-31T11:35:02;95904.84;;;18.62;60.80
65800;BME280;52544;48.116;11.660;2022-10-31T11:37:35;95899.16;;;18.73;63.81
65800;BME280;52544;48.116;11.660;2022-10-31T11:40:06;95893.91;;;18.80;59.90
65800;BME280;52544;48.116;11.660;2022-10-31T11:42:38;95898.41;;;18.88;59.55
65800;BME280;52544;48.116;11.660;2022-10-31T11:45:13;95891.72;;;18.84;59.69
65800;BME280;52544;48.116;11.660;2022-10-31T11:47:42;95885.69;;;18.82;59.76
65800;BME280;52544;48.116;11.660;2022-10-31T11:50:11;95885.66;;;18.90;60.15
65800;BME280;52544;48.116;11.660;2022-10-31T11:52:44;95882.94;;;18.98;60.05
65800;BME280;52544;48.116;11.660;2022-10-31T11:57:46;95870.00;;;19.02;58.90
65800;BME280;52544;48.116;11.660;2022-10-31T12:00:29;95870.69;;;19.04;59.48
65800;BME280;52544;48.116;11.660;2022-10-31T12:03:15;95863.41;;;19.12;59.18
65800;BME280;52544;48.116;11.660;2022-10-31T12:05:47;95863.03;;;19.15;59.44
65800;BME280;52544;48.116;11.660;2022-10-31T12:08:14;95866.41;;;19.17;59.01
65800;BME280;52544;48.116;11.660;2022-10-31T12:10:51;95858.53;;;19.16;59.84
65800;BME280;52544;48.116;11.660;2022-10-31T12:13:34;95849.56;;;19.23;59.60
65800;BME280;52544;48.116;11.660;2022-10-31T12:16:28;95848.94;;;19.21;59.51
65800;BME280;52544;48.116;11.660;2022-10-31T12:24:48;95849.69;;;19.07;61.22
65800;BME280;52544;48.116;11.660;2022-10-31T12:30:19;95840.69;;;19.00;61.63
65800;BME280;52544;48.116;11.660;2022-10-31T12:36:07;95835.88;;;18.95;63.52
65800;BME280;52544;48.116;11.660;2022-10-31T12:38:43;95830.34;;;18.89;63.34
65800;BME280;52544;48.116;11.660;2022-10-31T12:43:53;95827.88;;;18.87;64.76
65800;BME280;52544;48.116;11.660;2022-10-31T12:52:15;95822.00;;;18.84;63.83
65800;BME280;52544;48.116;11.660;2022-10-31T12:55:06;95812.13;;;18.84;63.86
65800;BME280;52544;48.116;11.660;2022-10-31T12:57:45;95806.91;;;18.91;63.79
65800;BME280;52544;48.116;11.660;2022-10-31T13:00:17;95803.84;;;18.94;63.52
65800;BME280;52544;48.116;11.660;2022-10-31T13:02:48;95801.84;;;18.96;63.90
65800;BME280;52544;48.116;11.660;2022-10-31T13:05:36;95791.09;;;18.96;63.74
65800;BME280;52544;48.116;11.660;2022-10-31T13:08:10;95798.28;;;19.04;63.80
65800;BME280;52544;48.116;11.660;2022-10-31T13:10:44;95787.69;;;19.02;64.09
65800;BME280;52544;48.116;11.660;2022-10-31T13:13:35;95778.75;;;19.10;63.73
65800;BME280;52544;48.116;11.660;2022-10-31T13:16:24;95778.50;;;19.19;65.63
65800;BME280;52544;48.116;11.660;2022-10-31T13:19:05;95778.44;;;19.28;64.60
65800;BME280;52544;48.116;11.660;2022-10-31T13:24:23;95772.94;;;19.44;64.67
65800;BME280;52544;48.116;11.660;2022-10-31T13:26:54;95772.25;;;19.50;64.89
65800;BME280;52544;48.116;11.660;2022-10-31T13:29:28;95768.34;;;19.53;65.44
65800;BME280;52544;48.116;11.660;2022-10-31T13:31:56;95774.53;;;19.53;64.05
65800;BME280;52544;48.116;11.660;2022-10-31T13:34:34;95764.00;;;19.52;62.32
65800;BME280;52544;48.116;11.660;2022-10-31T13:37:12;95764.19;;;19.50;62.67
65800;BME280;52544;48.116;11.660;2022-10-31T13:42:43;95754.91;;;19.38;62.92
65800;BME280;52544;48.116;11.660;2022-10-31T13:45:16;95750.63;;;19.29;63.43
65800;BME280;52544;48.116;11.660;2022-10-31T13:47:42;95754.03;;;19.22;63.93
65800;BME280;52544;48.116;11.660;2022-10-31T13:50:24;95751.69;;;19.19;64.42
65800;BME280;52544;48.116;11.660;2022-10-31T13:52:50;95757.59;;;19.15;65.40
65800;BME280;52544;48.116;11.660;2022-10-31T13:55:35;95753.59;;;19.11;65.13
65800;BME280;52544;48.116;11.660;2022-10-31T13:58:26;95749.16;;;19.03;66.21
65800;BME280;52544;48.116;11.660;2022-10-31T14:03:29;95748.19;;;18.96;66.64
65800;BME280;52544;48.116;11.660;2022-10-31T14:05:56;95747.06;;;18.90;66.91
65800;BME280;52544;48.116;11.660;2022-10-31T14:08:23;95743.91;;;18.87;67.27
65800;BME280;52544;48.116;11.660;2022-10-31T14:10:53;95739.91;;;18.83;67.81
65800;BME280;52544;48.116;11.660;2022-10-31T14:13:31;95746.16;;;18.75;71.04
65800;BME280;52544;48.116;11.660;2022-10-31T14:16:00;95736.09;;;18.69;72.33
65800;BME280;52544;48.116;11.660;2022-10-31T14:18:32;95735.84;;;18.56;72.92
65800;BME280;52544;48.116;11.660;2022-10-31T14:20:58;95730.34;;;18.57;72.59
65800;BME280;52544;48.116;11.660;2022-10-31T14:28:49;95726.13;;;18.86;70.62